Beausejour, Canada
Current Conditions -  °F | °C
As of 10:00 PM on Monday 20 Oct 2014 (Local Time) from CYWG Reporting Station
Clear Clear  
Wind Chill: 39°   Ceiling: Unl
Heat Index: 45°   Visibility: 15mi
Dew Point: 37°   Wind: 10mph
Humidity: 76%   Direction: 130°SE
Pressure: 30.04"   Gusts: NA
Location:  50.06°N, 96.51°W
Report Text: CYWG 210300Z 13009KT 15SM SKC 07/03 A3004 RMK SLP180
Loading
Personal Weather Stations






























Interactive Weather Map
Tropical Storm Tracking
New forecast layout! Learn more

10-Day Weather Forecast

Advertisements
Track Severe Weather on mobile